Time;durP1;ratioP1;P1;durP2;ratioP2;P2;SDS_P1;SDS_P2;PMS_P1;PMS_P2;Temp;Humidity;BMP_temperature;BMP_pressure;BME280_temperature;BME280_humidity;BME280_pressure;Samples;Min_cycle;Max_cycle;Signal;HPM_P1;HPM_P2
2022/05/05 00:01:16;;;;;;;8.13;6.60;;;8.80;99.90;;;;;;5069562;28;20197;-81
2022/05/05 00:03:43;;;;;;;6.77;5.67;;;8.80;99.90;;;;;;5069812;28;20209;-82
2022/05/05 00:06:09;;;;;;;9.60;6.13;;;8.80;99.90;;;;;;5068912;28;20209;-88
2022/05/05 00:08:36;;;;;;;9.13;6.93;;;8.80;99.90;;;;;;5070076;28;20205;-80
2022/05/05 00:16:33;;;;;;;7.63;5.90;;;8.80;99.90;;;;;;5049467;28;20347;-87
2022/05/05 00:19:01;;;;;;;12.57;7.63;;;8.80;99.90;;;;;;5064738;28;20229;-80
2022/05/05 00:21:28;;;;;;;9.47;6.23;;;8.80;99.90;;;;;;5068537;28;20224;-80
2022/05/05 00:23:55;;;;;;;7.17;6.17;;;8.70;99.90;;;;;;5068595;28;20913;-81
2022/05/05 00:26:22;;;;;;;10.73;7.50;;;8.70;99.90;;;;;;5068595;28;20197;-83
2022/05/05 00:28:50;;;;;;;11.20;7.20;;;8.70;99.90;;;;;;5068119;28;20193;-78
2022/05/05 00:31:17;;;;;;;8.80;6.40;;;8.70;99.90;;;;;;5066451;28;20208;-80
2022/05/05 00:33:44;;;;;;;12.93;6.77;;;8.70;99.90;;;;;;5067522;28;20236;-79
2022/05/05 00:36:11;;;;;;;10.73;7.50;;;8.70;99.90;;;;;;5066693;28;20213;-80
2022/05/05 00:38:38;;;;;;;8.50;6.83;;;8.70;99.90;;;;;;5066439;28;20807;-77
2022/05/05 00:41:05;;;;;;;8.73;6.50;;;8.70;99.90;;;;;;5067073;28;20196;-78
2022/05/05 00:43:32;;;;;;;9.20;6.67;;;8.60;99.90;;;;;;5067248;28;20209;-78
2022/05/05 00:46:00;;;;;;;8.60;6.43;;;8.60;99.90;;;;;;5067687;28;20201;-78
2022/05/05 00:48:28;;;;;;;11.23;7.53;;;8.60;99.90;;;;;;5067205;28;20193;-79
2022/05/05 00:50:56;;;;;;;8.83;6.63;;;8.60;99.90;;;;;;5067607;28;20613;-80
2022/05/05 00:53:23;;;;;;;9.43;7.30;;;8.60;99.90;;;;;;5067700;28;20201;-80
2022/05/05 00:55:54;;;;;;;10.90;7.50;;;8.60;99.90;;;;;;5066546;28;20212;-79
2022/05/05 00:58:23;;;;;;;6.87;6.00;;;8.60;99.90;;;;;;5066912;28;20225;-79
2022/05/05 01:00:50;;;;;;;8.83;6.50;;;8.50;99.90;;;;;;5068448;28;20205;-80
2022/05/05 01:03:18;;;;;;;11.10;6.87;;;8.50;99.90;;;;;;5066239;28;20209;-79
2022/05/05 01:05:45;;;;;;;9.77;7.20;;;8.50;99.90;;;;;;5067019;28;20205;-88
2022/05/05 01:08:12;;;;;;;8.57;6.60;;;8.40;99.90;;;;;;5067307;28;20205;-81
2022/05/05 01:10:39;;;;;;;8.17;6.77;;;8.50;99.90;;;;;;5067134;28;20202;-79
2022/05/05 01:13:06;;;;;;;10.63;7.90;;;8.50;99.90;;;;;;5065613;28;20210;-79
2022/05/05 01:15:37;;;;;;;8.77;6.73;;;8.50;99.90;;;;;;5067808;28;20205;-82
2022/05/05 01:18:04;;;;;;;10.97;7.47;;;8.50;99.90;;;;;;5067858;28;20267;-88
2022/05/05 01:20:32;;;;;;;7.83;6.63;;;8.50;99.90;;;;;;5066434;28;20205;-79
2022/05/05 01:23:00;;;;;;;11.87;7.90;;;8.50;99.90;;;;;;5066859;28;20202;-80
2022/05/05 01:28:11;;;;;;;9.50;7.00;;;8.60;99.90;;;;;;5066664;28;20201;-79
2022/05/05 01:30:39;;;;;;;9.80;6.83;;;8.60;99.90;;;;;;5066557;28;20762;-80
2022/05/05 01:33:17;;;;;;;11.80;7.50;;;8.60;99.90;;;;;;5067533;28;20260;-86
2022/05/05 01:35:45;;;;;;;10.57;7.53;;;8.60;99.90;;;;;;5067543;28;20200;-81
2022/05/05 01:38:15;;;;;;;11.70;8.00;;;8.60;99.90;;;;;;5066342;28;20224;-80
2022/05/05 01:40:43;;;;;;;12.23;9.00;;;8.70;99.90;;;;;;5067162;28;20209;-79
2022/05/05 01:43:11;;;;;;;12.10;8.60;;;8.70;99.90;;;;;;5067666;28;20210;-86
2022/05/05 01:45:38;;;;;;;11.40;7.97;;;8.70;99.90;;;;;;5068199;28;20197;-78
2022/05/05 01:48:05;;;;;;;10.83;7.73;;;8.70;99.90;;;;;;5065871;28;20216;-79
2022/05/05 01:50:32;;;;;;;10.87;8.00;;;8.80;99.90;;;;;;5068630;28;20197;-82
2022/05/05 01:52:59;;;;;;;13.40;8.43;;;8.80;99.90;;;;;;5066721;28;20201;-83
2022/05/05 01:55:30;;;;;;;13.70;9.33;;;8.80;99.90;;;;;;5067350;28;20209;-88
2022/05/05 01:57:57;;;;;;;10.87;7.93;;;8.80;99.90;;;;;;5067940;28;20224;-81
2022/05/05 02:00:23;;;;;;;15.47;9.27;;;8.90;99.90;;;;;;5067359;28;20215;-82
2022/05/05 02:02:50;;;;;;;16.77;9.77;;;8.90;99.90;;;;;;5065739;28;20200;-81
2022/05/05 02:05:17;;;;;;;14.53;9.70;;;8.90;99.90;;;;;;5066958;28;20202;-80
2022/05/05 02:07:45;;;;;;;14.63;9.37;;;9.00;99.90;;;;;;5066183;28;20680;-81
2022/05/05 02:10:14;;;;;;;13.10;8.43;;;9.00;99.90;;;;;;5064411;28;20266;-79
2022/05/05 02:12:44;;;;;;;15.47;9.50;;;9.00;99.90;;;;;;5065340;28;20247;-79
2022/05/05 02:15:13;;;;;;;11.90;8.70;;;9.00;99.90;;;;;;5064872;28;20208;-79
2022/05/05 02:17:41;;;;;;;11.73;8.63;;;9.00;99.90;;;;;;5064405;28;20197;-80
2022/05/05 02:20:11;;;;;;;11.07;8.60;;;9.00;99.90;;;;;;5064896;28;20216;-79
2022/05/05 02:22:38;;;;;;;14.93;9.33;;;9.10;99.90;;;;;;5064535;28;20208;-79
2022/05/05 02:25:06;;;;;;;14.93;9.77;;;9.10;99.90;;;;;;5065337;28;20197;-80
2022/05/05 02:27:50;;;;;;;16.67;10.90;;;9.10;99.90;;;;;;5066402;28;20201;-79
2022/05/05 02:30:18;;;;;;;14.07;9.37;;;9.10;99.90;;;;;;5064175;28;20219;-82
2022/05/05 02:32:44;;;;;;;15.27;9.37;;;9.20;99.90;;;;;;5065601;28;20275;-78
2022/05/05 02:35:12;;;;;;;14.63;9.47;;;9.20;99.90;;;;;;5066060;28;20182;-83
2022/05/05 02:40:23;;;;;;;11.60;8.13;;;9.20;99.90;;;;;;5065957;28;20819;-80
2022/05/05 02:42:51;;;;;;;12.50;8.83;;;9.20;99.90;;;;;;5067869;28;20199;-79
2022/05/05 02:45:18;;;;;;;12.70;7.87;;;9.30;99.90;;;;;;5064915;28;20208;-79
2022/05/05 02:47:47;;;;;;;10.80;8.27;;;9.30;99.90;;;;;;5067160;28;20205;-80
2022/05/05 02:50:14;;;;;;;12.07;8.10;;;9.30;99.90;;;;;;5065811;28;20292;-84
2022/05/05 02:52:41;;;;;;;13.40;8.33;;;9.30;99.90;;;;;;5065375;28;20208;-88
2022/05/05 02:55:07;;;;;;;9.77;7.83;;;9.30;99.90;;;;;;5065216;28;20212;-81
2022/05/05 02:57:34;;;;;;;10.20;7.70;;;9.40;99.90;;;;;;5066351;28;20597;-81
2022/05/05 03:00:07;;;;;;;10.57;7.10;;;9.40;99.90;;;;;;5064762;28;20232;-79
2022/05/05 03:02:34;;;;;;;12.77;8.90;;;9.40;99.90;;;;;;5066313;28;20660;-83
2022/05/05 03:05:00;;;;;;;13.67;8.60;;;9.50;99.90;;;;;;5065966;28;20208;-82
2022/05/05 03:07:27;;;;;;;11.67;7.57;;;9.50;99.90;;;;;;5070206;28;20189;-82
2022/05/05 03:09:54;;;;;;;10.27;7.20;;;9.50;99.90;;;;;;5069924;28;20220;-81
2022/05/05 03:12:21;;;;;;;9.93;7.40;;;9.50;99.90;;;;;;5069587;28;20204;-80
2022/05/05 03:14:48;;;;;;;12.77;7.13;;;9.50;99.90;;;;;;5068577;28;20216;-89
2022/05/05 03:17:16;;;;;;;8.73;6.53;;;9.50;99.90;;;;;;5068876;28;20312;-82
2022/05/05 03:19:43;;;;;;;8.30;6.57;;;9.50;99.90;;;;;;5070794;28;20228;-80
2022/05/05 03:22:10;;;;;;;7.90;6.03;;;9.50;99.90;;;;;;5070631;28;20292;-79
2022/05/05 03:24:38;;;;;;;8.03;6.53;;;9.50;99.90;;;;;;5071151;28;20265;-82
2022/05/05 03:27:06;;;;;;;10.60;7.07;;;9.50;99.90;;;;;;5069435;28;20539;-80
2022/05/05 03:29:33;;;;;;;7.53;6.60;;;9.50;99.90;;;;;;5069286;28;20197;-80
2022/05/05 03:32:00;;;;;;;10.03;7.37;;;9.50;99.90;;;;;;5070356;28;20701;-81
2022/05/05 03:34:28;;;;;;;8.93;6.53;;;9.50;99.90;;;;;;5067664;28;20248;-85
2022/05/05 03:36:55;;;;;;;7.30;6.53;;;9.50;99.90;;;;;;5068603;28;20225;-80
2022/05/05 03:39:22;;;;;;;9.13;6.90;;;9.50;99.90;;;;;;5068556;28;20224;-79
2022/05/05 03:41:49;;;;;;;8.57;6.80;;;9.50;99.90;;;;;;5068420;28;20193;-79
2022/05/05 03:44:16;;;;;;;11.33;7.73;;;9.60;99.90;;;;;;5068326;28;20224;-77
2022/05/05 03:46:42;;;;;;;13.77;7.60;;;9.60;99.90;;;;;;5070074;28;20205;-80
2022/05/05 03:49:10;;;;;;;11.93;8.17;;;9.60;99.90;;;;;;5068616;28;20212;-86
2022/05/05 03:51:39;;;;;;;14.13;8.57;;;9.60;99.90;;;;;;5070209;28;20248;-81
2022/05/05 03:54:06;;;;;;;11.27;6.93;;;9.60;99.90;;;;;;5069330;28;20589;-81
2022/05/05 03:56:33;;;;;;;11.73;8.10;;;9.60;99.90;;;;;;5070281;28;20209;-89
2022/05/05 03:58:59;;;;;;;10.77;7.10;;;9.60;99.90;;;;;;5069638;28;20244;-84
2022/05/05 04:01:26;;;;;;;11.90;7.97;;;9.60;99.90;;;;;;5069702;28;20213;-84
2022/05/05 04:03:53;;;;;;;10.83;7.00;;;9.60;99.90;;;;;;5069684;28;20205;-79
2022/05/05 04:06:20;;;;;;;15.27;8.63;;;9.60;99.90;;;;;;5070196;28;20205;-79
2022/05/05 04:08:48;;;;;;;11.20;7.70;;;9.60;99.90;;;;;;5070103;28;20212;-83
2022/05/05 04:11:15;;;;;;;13.50;8.93;;;9.60;99.90;;;;;;5071255;28;20209;-83
2022/05/05 04:13:43;;;;;;;11.50;7.83;;;9.70;99.90;;;;;;5071167;28;20193;-80
2022/05/05 04:16:10;;;;;;;13.90;8.00;;;9.70;99.90;;;;;;5070045;28;20660;-86
2022/05/05 04:18:37;;;;;;;16.17;9.37;;;9.70;99.90;;;;;;5069210;28;20236;-81
2022/05/05 04:21:04;;;;;;;14.10;8.73;;;9.70;99.90;;;;;;5067392;28;20215;-79
2022/05/05 04:23:31;;;;;;;11.23;8.23;;;9.70;99.90;;;;;;5067951;28;20212;-79
2022/05/05 04:26:00;;;;;;;11.57;8.53;;;9.70;99.90;;;;;;5067052;28;20319;-79
2022/05/05 04:28:28;;;;;;;14.33;9.53;;;9.70;99.90;;;;;;5067604;28;20213;-80
2022/05/05 04:30:54;;;;;;;12.53;8.03;;;9.70;99.90;;;;;;5068358;28;20216;-80
2022/05/05 04:33:22;;;;;;;12.63;8.73;;;9.70;99.90;;;;;;5067946;28;20243;-81
2022/05/05 04:35:49;;;;;;;14.47;9.57;;;9.70;99.90;;;;;;5068185;28;20216;-88
2022/05/05 04:38:16;;;;;;;13.20;9.33;;;9.70;99.90;;;;;;5068778;28;20229;-80
2022/05/05 04:40:43;;;;;;;13.60;9.40;;;9.70;99.90;;;;;;5069434;28;20201;-79
2022/05/05 04:43:11;;;;;;;16.57;10.87;;;9.80;99.90;;;;;;5068050;28;20213;-79
2022/05/05 04:45:38;;;;;;;15.63;9.83;;;9.80;99.90;;;;;;5068762;28;20478;-78
2022/05/05 04:48:05;;;;;;;15.00;10.03;;;9.80;99.90;;;;;;5070464;28;20240;-80
2022/05/05 04:50:32;;;;;;;18.60;11.30;;;9.80;99.90;;;;;;5068245;28;20201;-78
2022/05/05 04:52:59;;;;;;;14.33;10.33;;;9.90;99.90;;;;;;5068713;28;20201;-80
2022/05/05 04:55:26;;;;;;;13.43;9.93;;;9.90;99.90;;;;;;5069645;28;20206;-82
2022/05/05 04:57:53;;;;;;;16.40;10.50;;;9.90;99.90;;;;;;5071053;28;20473;-81
2022/05/05 05:00:22;;;;;;;14.67;11.27;;;10.00;99.90;;;;;;5074565;28;20704;-80
2022/05/05 05:02:49;;;;;;;14.37;10.00;;;10.00;99.90;;;;;;5071508;28;20205;-87
2022/05/05 05:05:16;;;;;;;14.27;10.57;;;10.10;99.90;;;;;;5070156;28;20200;-85
2022/05/05 05:07:43;;;;;;;20.57;13.10;;;10.10;99.90;;;;;;5070100;28;20205;-86
2022/05/05 05:10:10;;;;;;;19.80;12.83;;;10.20;99.90;;;;;;5070501;28;20201;-85
2022/05/05 05:12:37;;;;;;;17.83;11.30;;;10.20;99.90;;;;;;5070836;28;20737;-81
2022/05/05 05:15:05;;;;;;;17.33;11.63;;;10.30;99.90;;;;;;5069709;28;20211;-83
2022/05/05 05:17:33;;;;;;;16.97;12.20;;;10.30;99.90;;;;;;5068938;28;20189;-86
2022/05/05 05:20:00;;;;;;;18.17;12.57;;;10.40;99.90;;;;;;5068431;28;20224;-78
2022/05/05 05:22:27;;;;;;;15.63;10.97;;;10.50;99.90;;;;;;5068563;28;20232;-79
2022/05/05 05:24:54;;;;;;;19.70;12.00;;;10.50;99.90;;;;;;5068376;28;20212;-84
2022/05/05 05:27:21;;;;;;;16.57;12.27;;;10.60;99.90;;;;;;5071979;28;20201;-81
2022/05/05 05:29:48;;;;;;;18.17;12.57;;;10.70;99.90;;;;;;5072593;28;20202;-86
2022/05/05 05:32:14;;;;;;;23.03;13.97;;;10.80;99.90;;;;;;5072204;28;20201;-83
2022/05/05 05:34:42;;;;;;;18.67;12.07;;;10.80;99.90;;;;;;5073022;28;20241;-86
2022/05/05 05:37:09;;;;;;;15.10;11.70;;;10.90;99.90;;;;;;5067173;28;20225;-87
2022/05/05 05:39:37;;;;;;;27.83;13.37;;;11.00;99.90;;;;;;5052123;28;20240;-82
2022/05/05 05:42:06;;;;;;;21.83;13.60;;;11.00;99.90;;;;;;5050124;28;20219;-83
2022/05/05 05:44:33;;;;;;;18.50;12.53;;;11.10;99.90;;;;;;5066153;28;20201;-87
2022/05/05 05:46:59;;;;;;;21.93;12.23;;;11.20;99.90;;;;;;5065080;28;20198;-81
2022/05/05 05:49:26;;;;;;;18.97;11.07;;;11.20;99.90;;;;;;5066736;28;20201;-80
2022/05/05 05:51:54;;;;;;;22.40;11.07;;;11.30;99.90;;;;;;5066422;28;20205;-80
2022/05/05 05:54:21;;;;;;;21.87;12.03;;;11.30;99.90;;;;;;5066405;28;20507;-83
2022/05/05 05:56:48;;;;;;;20.23;12.03;;;11.40;99.90;;;;;;5066227;28;20217;-79
2022/05/05 05:59:15;;;;;;;18.80;12.07;;;11.50;99.90;;;;;;5066683;28;20567;-80
2022/05/05 06:04:27;;;;;;;16.37;10.37;;;11.60;99.90;;;;;;5066726;28;20250;-78
2022/05/05 06:06:55;;;;;;;15.63;10.60;;;11.70;99.90;;;;;;5066514;28;20189;-79
2022/05/05 06:09:22;;;;;;;23.83;13.07;;;11.90;99.90;;;;;;5065705;28;20209;-80
2022/05/05 06:11:49;;;;;;;18.90;12.33;;;11.90;99.90;;;;;;5066374;28;20193;-81
2022/05/05 06:14:16;;;;;;;15.77;10.63;;;12.00;99.90;;;;;;5065228;28;20664;-80
2022/05/05 06:16:43;;;;;;;13.60;9.73;;;12.10;99.90;;;;;;5066250;28;20205;-79
2022/05/05 06:19:10;;;;;;;14.83;10.20;;;12.30;99.90;;;;;;5065382;28;20228;-80
2022/05/05 06:21:39;;;;;;;16.97;11.67;;;12.40;99.90;;;;;;5065782;28;20214;-80
2022/05/05 06:24:07;;;;;;;14.63;9.63;;;12.50;99.90;;;;;;5064757;28;20814;-80
2022/05/05 06:26:35;;;;;;;14.10;10.20;;;12.50;99.90;;;;;;5066285;28;20197;-80
2022/05/05 06:29:02;;;;;;;14.87;11.03;;;12.70;99.90;;;;;;5066183;28;20884;-81
2022/05/05 06:31:28;;;;;;;14.80;12.10;;;12.80;99.90;;;;;;5066110;28;20208;-78
2022/05/05 06:33:55;;;;;;;16.60;10.63;;;12.90;99.90;;;;;;5065895;28;20560;-79
2022/05/05 06:36:23;;;;;;;19.10;11.57;;;13.00;99.90;;;;;;5066380;28;20193;-80
2022/05/05 06:38:52;;;;;;;21.27;12.20;;;13.10;99.90;;;;;;5066677;28;20200;-81
2022/05/05 06:41:20;;;;;;;23.80;13.33;;;13.20;99.90;;;;;;5065292;28;20206;-81
2022/05/05 06:43:47;;;;;;;24.90;13.13;;;13.30;99.90;;;;;;5063482;28;20213;-80
2022/05/05 06:46:14;;;;;;;18.30;12.93;;;13.40;99.90;;;;;;5065440;28;20236;-79
2022/05/05 06:48:41;;;;;;;23.23;13.30;;;13.50;99.90;;;;;;5066827;28;20200;-81
2022/05/05 06:51:07;;;;;;;21.37;13.00;;;13.50;99.90;;;;;;5067423;28;20197;-80
2022/05/05 06:53:34;;;;;;;20.77;12.83;;;13.60;99.90;;;;;;5071204;28;20197;-81
2022/05/05 06:56:01;;;;;;;18.40;13.00;;;13.60;99.90;;;;;;5070236;28;20483;-82
2022/05/05 06:58:30;;;;;;;16.70;11.07;;;13.70;99.90;;;;;;5071185;28;20305;-82
2022/05/05 07:03:41;;;;;;;23.30;12.67;;;14.00;99.90;;;;;;5071210;28;20945;-81
2022/05/05 07:06:10;;;;;;;20.13;12.93;;;14.00;99.90;;;;;;5070252;28;20291;-87
2022/05/05 07:11:26;;;;;;;18.53;12.47;;;14.20;99.90;;;;;;5015197;28;20210;-81
2022/05/05 07:13:54;;;;;;;20.67;13.23;;;14.40;99.90;;;;;;5071318;28;20200;-81
2022/05/05 07:16:21;;;;;;;24.77;14.33;;;14.40;99.90;;;;;;5071778;28;20204;-89
2022/05/05 07:18:48;;;;;;;20.33;12.70;;;14.50;99.90;;;;;;5072314;28;20215;-81
2022/05/05 07:21:15;;;;;;;19.33;13.10;;;14.70;99.90;;;;;;5071138;28;20225;-81
2022/05/05 07:23:42;;;;;;;24.20;15.07;;;14.80;99.90;;;;;;5069792;28;20201;-79
2022/05/05 07:26:09;;;;;;;19.10;13.83;;;14.80;99.90;;;;;;5055309;28;20228;-86
2022/05/05 07:28:36;;;;;;;24.07;16.37;;;15.00;99.90;;;;;;5072393;28;20230;-80
2022/05/05 07:31:04;;;;;;;25.07;16.20;;;15.00;99.90;;;;;;5071143;28;20284;-80
2022/05/05 07:33:31;;;;;;;19.60;14.40;;;15.10;99.90;;;;;;5070877;28;20480;-80
2022/05/05 07:35:58;;;;;;;24.97;15.77;;;15.20;99.90;;;;;;5071461;28;20531;-86
2022/05/05 07:38:25;;;;;;;21.53;16.40;;;15.40;99.90;;;;;;5072019;28;20217;-83
2022/05/05 07:40:52;;;;;;;21.42;15.25;;;15.60;99.90;;;;;;5070911;28;20229;-84
2022/05/05 07:43:19;;;;;;;17.70;13.70;;;15.80;99.90;;;;;;5070409;28;20213;-85
2022/05/05 07:45:46;;;;;;;22.55;15.10;;;16.00;99.90;;;;;;5069544;28;20585;-87
2022/05/05 07:48:14;;;;;;;23.90;17.08;;;16.10;99.90;;;;;;5067580;28;20247;-82
2022/05/05 07:50:41;;;;;;;20.13;14.70;;;16.30;99.90;;;;;;5068660;28;20577;-83
2022/05/05 07:53:08;;;;;;;23.33;16.52;;;16.40;99.90;;;;;;5068324;28;20201;-81
2022/05/05 07:55:35;;;;;;;24.73;18.33;;;16.60;99.90;;;;;;5067525;28;20213;-89
2022/05/05 07:58:02;;;;;;;30.40;18.50;;;16.60;99.90;;;;;;5068662;28;20209;-86
2022/05/05 08:00:29;;;;;;;22.50;16.65;;;16.70;99.90;;;;;;5067217;28;20249;-81
2022/05/05 08:02:56;;;;;;;19.50;15.20;;;16.80;99.90;;;;;;5067724;28;20223;-81
2022/05/05 08:05:24;;;;;;;19.23;16.02;;;16.90;99.90;;;;;;5069285;28;20201;-84
2022/05/05 08:07:51;;;;;;;29.15;17.75;;;16.90;99.90;;;;;;5069423;28;20197;-84
2022/05/05 08:10:19;;;;;;;25.10;17.63;;;17.00;99.90;;;;;;5069249;28;20205;-83
2022/05/05 08:12:46;;;;;;;19.92;15.80;;;16.90;99.90;;;;;;5068589;28;20287;-83
2022/05/05 08:15:16;;;;;;;21.70;15.80;;;16.90;99.90;;;;;;5067511;28;20300;-81
2022/05/05 08:17:44;;;;;;;23.88;16.75;;;17.00;99.90;;;;;;5068806;28;20205;-84
2022/05/05 08:20:11;;;;;;;24.13;16.60;;;17.10;99.90;;;;;;5067428;28;20302;-83
2022/05/05 08:22:39;;;;;;;19.48;15.38;;;17.20;99.90;;;;;;5068041;28;20212;-82
2022/05/05 08:30:36;;;;;;;24.25;19.05;;;17.40;99.90;;;;;;5068407;28;20181;-82
2022/05/05 08:33:03;;;;;;;30.45;20.98;;;17.30;99.90;;;;;;5069413;28;20229;-82
2022/05/05 08:35:29;;;;;;;22.38;18.10;;;17.40;99.90;;;;;;5068340;28;20209;-88
2022/05/05 08:37:58;;;;;;;25.95;18.60;;;17.30;99.90;;;;;;5068542;28;20229;-82
2022/05/05 08:40:26;;;;;;;23.92;17.75;;;17.30;99.90;;;;;;5068378;28;20228;-82
2022/05/05 08:42:54;;;;;;;25.95;18.55;;;17.40;99.90;;;;;;5069123;28;20204;-82
2022/05/05 08:45:21;;;;;;;27.70;20.13;;;17.60;99.90;;;;;;5068681;28;20201;-80
2022/05/05 08:47:48;;;;;;;29.67;21.30;;;17.70;99.90;;;;;;5068685;28;20259;-82
2022/05/05 08:50:15;;;;;;;30.38;23.13;;;17.80;99.90;;;;;;5066963;28;20197;-82
2022/05/05 08:52:48;;;;;;;33.03;24.83;;;17.90;99.90;;;;;;5068439;28;20197;-84
2022/05/05 08:55:18;;;;;;;33.50;24.85;;;18.00;99.90;;;;;;5067018;28;20624;-83
2022/05/05 08:57:45;;;;;;;31.48;23.73;;;18.20;99.90;;;;;;5068176;28;20193;-82
2022/05/05 09:00:15;;;;;;;32.40;23.60;;;18.40;99.90;;;;;;5067912;28;20225;-81
2022/05/05 09:02:42;;;;;;;26.73;20.05;;;18.40;99.90;;;;;;5067245;28;20204;-83
2022/05/05 09:05:10;;;;;;;23.92;19.42;;;18.50;99.90;;;;;;5067201;28;20209;-86
2022/05/05 09:07:49;;;;;;;28.65;21.02;;;18.70;99.90;;;;;;5069126;28;20233;-82
2022/05/05 09:10:18;;;;;;;27.90;21.23;;;18.80;99.90;;;;;;5068482;28;20226;-82
2022/05/05 09:12:58;;;;;;;27.70;22.17;;;19.00;99.90;;;;;;5067260;28;21035;-82
2022/05/05 09:15:31;;;;;;;30.42;22.55;;;19.10;99.90;;;;;;5068440;28;20220;-80
2022/05/05 09:18:12;;;;;;;30.75;23.90;;;19.10;99.90;;;;;;5066266;28;20219;-83
2022/05/05 09:20:39;;;;;;;26.33;20.20;;;18.90;99.90;;;;;;5066595;28;20225;-87
2022/05/05 09:23:06;;;;;;;26.92;21.20;;;19.10;99.90;;;;;;5067526;28;20213;-82
2022/05/05 09:25:47;;;;;;;27.88;21.17;;;19.10;99.90;;;;;;5066020;28;20227;-80
2022/05/05 09:28:18;;;;;;;25.63;20.13;;;19.10;99.90;;;;;;5066750;28;20208;-83
2022/05/05 09:30:49;;;;;;;24.85;19.23;;;19.20;99.90;;;;;;5067207;28;20210;-83
2022/05/05 09:33:17;;;;;;;32.17;24.73;;;19.20;99.90;;;;;;5066883;28;20259;-84
2022/05/05 09:35:45;;;;;;;38.40;27.75;;;19.30;99.90;;;;;;5067233;28;20242;-81
2022/05/05 09:38:12;;;;;;;30.10;24.60;;;19.50;99.90;;;;;;5066923;28;20220;-82
2022/05/05 09:40:39;;;;;;;38.00;27.52;;;19.60;99.90;;;;;;5066253;28;20217;-81
2022/05/05 09:43:11;;;;;;;38.78;29.42;;;19.70;99.90;;;;;;5067417;28;20209;-86
2022/05/05 09:45:55;;;;;;;38.17;28.05;;;19.90;99.90;;;;;;5067768;28;20239;-80
2022/05/05 09:48:27;;;;;;;33.58;25.73;;;19.90;99.90;;;;;;5065963;28;20197;-82
2022/05/05 09:51:04;;;;;;;32.45;25.90;;;20.10;99.90;;;;;;5067021;28;20205;-86
2022/05/05 09:59:53;;;;;;;30.85;23.20;;;20.70;99.90;;;;;;5064926;28;20457;-84
2022/05/05 10:05:11;;;;;;;29.17;22.75;;;21.00;99.90;;;;;;5066221;28;20216;-81
2022/05/05 10:07:44;;;;;;;31.60;24.77;;;21.00;99.90;;;;;;5067343;28;20194;-84
2022/05/05 10:10:11;;;;;;;29.90;21.05;;;21.10;99.90;;;;;;5067318;28;20216;-82
2022/05/05 10:12:40;;;;;;;30.83;23.02;;;21.10;99.90;;;;;;5066782;28;20212;-85
2022/05/05 10:15:11;;;;;;;28.05;21.63;;;21.00;99.90;;;;;;5067817;28;20229;-82
2022/05/05 10:17:38;;;;;;;22.80;17.38;;;20.90;99.90;;;;;;5067284;28;20205;-82
2022/05/05 10:20:07;;;;;;;17.90;14.45;;;20.80;99.90;;;;;;5067589;28;20198;-83
2022/05/05 10:22:40;;;;;;;23.95;16.77;;;20.80;99.90;;;;;;5067151;28;20625;-86
2022/05/05 10:25:11;;;;;;;23.08;16.30;;;20.70;99.90;;;;;;5067591;28;20845;-83
2022/05/05 10:27:43;;;;;;;19.65;15.48;;;20.80;99.90;;;;;;5067244;28;20675;-84
2022/05/05 10:30:16;;;;;;;25.08;19.73;;;21.00;99.90;;;;;;5066941;28;20705;-86
2022/05/05 10:32:44;;;;;;;30.02;23.13;;;21.10;99.90;;;;;;5068112;28;20240;-83
2022/05/05 10:35:24;;;;;;;36.92;27.95;;;21.30;99.90;;;;;;5066860;28;20254;-83
2022/05/05 10:37:51;;;;;;;34.25;24.65;;;21.40;99.90;;;;;;5068107;28;20233;-82
2022/05/05 10:40:18;;;;;;;23.73;19.65;;;21.50;99.90;;;;;;5067885;28;20205;-86
2022/05/05 10:42:46;;;;;;;30.83;23.65;;;21.60;99.90;;;;;;5066829;28;20198;-84
2022/05/05 10:45:16;;;;;;;33.97;24.70;;;21.70;99.90;;;;;;5065812;28;20216;-83
2022/05/05 10:48:40;;;;;;;38.05;24.90;;;21.50;99.90;;;;;;5067898;28;20250;-83
2022/05/05 10:51:08;;;;;;;28.40;22.88;;;21.60;99.90;;;;;;5046985;28;20200;-83
2022/05/05 10:53:39;;;;;;;30.42;23.60;;;21.80;99.90;;;;;;5067698;28;20205;-82
2022/05/05 10:56:27;;;;;;;35.10;25.23;;;21.80;99.90;;;;;;5067840;28;20488;-83
2022/05/05 10:59:05;;;;;;;34.67;25.25;;;21.90;99.90;;;;;;5068492;28;20189;-83
2022/05/05 11:01:58;;;;;;;36.25;26.38;;;21.90;99.90;;;;;;5051207;28;20223;-82
2022/05/05 11:04:30;;;;;;;33.20;23.27;;;21.80;99.90;;;;;;5052129;28;20190;-83
2022/05/05 11:07:31;;;;;;;29.85;22.48;;;21.90;99.90;;;;;;5051986;28;20194;-83
2022/05/05 11:10:00;;;;;;;32.70;24.17;;;21.80;99.90;;;;;;5028747;28;20198;-82
2022/05/05 11:12:33;;;;;;;31.25;23.23;;;21.90;99.90;;;;;;5050403;28;20201;-82
2022/05/05 11:23:32;;;;;;;24.73;19.83;;;22.00;99.90;;;;;;5066914;28;20277;-85
2022/05/05 11:26:01;;;;;;;27.73;22.52;;;22.10;99.90;;;;;;5066038;28;20206;-81
2022/05/05 11:28:31;;;;;;;28.95;22.70;;;22.00;99.90;;;;;;5066192;28;20198;-81
2022/05/05 11:30:58;;;;;;;29.95;22.50;;;22.00;99.90;;;;;;5065781;28;20189;-83
2022/05/05 11:33:27;;;;;;;27.42;22.58;;;21.80;99.90;;;;;;5066044;28;20225;-82
2022/05/05 11:35:56;;;;;;;32.28;24.45;;;21.70;99.90;;;;;;5066891;28;20205;-81
2022/05/05 11:38:24;;;;;;;32.78;22.40;;;21.60;99.90;;;;;;5067943;28;20225;-83
2022/05/05 11:41:00;;;;;;;27.33;20.48;;;21.70;99.90;;;;;;5072884;28;20225;-83
2022/05/05 11:46:13;;;;;;;27.55;20.80;;;21.60;99.90;;;;;;5071190;28;20188;-85
2022/05/05 11:48:42;;;;;;;28.10;21.23;;;21.70;99.90;;;;;;5071340;28;20202;-83
2022/05/05 11:51:09;;;;;;;29.45;22.67;;;21.70;99.90;;;;;;5072223;28;20539;-86
2022/05/05 11:53:36;;;;;;;36.15;25.90;;;21.50;99.90;;;;;;5070392;28;20201;-83
2022/05/05 11:56:04;;;;;;;33.35;25.30;;;21.40;99.90;;;;;;5070237;28;20335;-81
2022/05/05 12:04:02;;;;;;;29.48;23.55;;;21.00;99.90;;;;;;5069755;28;20247;-81
2022/05/05 12:06:31;;;;;;;30.83;23.90;;;20.80;99.90;;;;;;5071742;28;20209;-82
2022/05/05 12:08:59;;;;;;;35.03;25.83;;;20.70;99.90;;;;;;5072416;28;20220;-83
2022/05/05 12:11:27;;;;;;;32.83;25.38;;;20.80;99.90;;;;;;5072559;28;20189;-84
2022/05/05 12:14:00;;;;;;;21.67;16.95;;;20.80;99.90;;;;;;5072720;28;20209;-85
2022/05/05 12:16:31;;;;;;;18.63;15.10;;;21.00;99.90;;;;;;5071113;28;20609;-84
2022/05/05 12:19:00;;;;;;;19.50;15.35;;;21.30;99.90;;;;;;5070261;28;20208;-83
2022/05/05 12:21:27;;;;;;;16.90;13.98;;;21.60;99.90;;;;;;5069729;28;20232;-84
2022/05/05 12:24:00;;;;;;;17.92;15.63;;;21.90;99.90;;;;;;5069800;28;20215;-84
2022/05/05 12:26:32;;;;;;;28.73;22.02;;;22.10;99.90;;;;;;5069918;28;20644;-83
2022/05/05 12:28:59;;;;;;;30.25;23.55;;;22.30;99.90;;;;;;5068557;28;20201;-80
2022/05/05 12:31:28;;;;;;;31.60;23.40;;;22.30;99.90;;;;;;5069414;28;20207;-82
2022/05/05 12:33:55;;;;;;;28.25;21.45;;;22.20;99.90;;;;;;5069525;28;20233;-85
2022/05/05 12:36:29;;;;;;;29.23;21.30;;;22.00;99.90;;;;;;5069590;28;20221;-83
2022/05/05 12:39:12;;;;;;;22.83;17.88;;;22.10;99.90;;;;;;5068837;28;20253;-86
2022/05/05 12:41:56;;;;;;;20.52;15.75;;;22.20;99.90;;;;;;5068872;28;20637;-82
2022/05/05 12:44:23;;;;;;;26.00;19.50;;;22.20;99.90;;;;;;5069028;28;20205;-82
2022/05/05 12:46:51;;;;;;;24.90;19.65;;;22.10;99.90;;;;;;5068914;28;20225;-82
2022/05/05 12:49:35;;;;;;;19.98;16.15;;;22.00;99.90;;;;;;5067025;28;20205;-84
2022/05/05 12:52:04;;;;;;;18.50;14.35;;;21.60;99.90;;;;;;5069694;28;20310;-83
2022/05/05 13:00:01;;;;;;;24.83;18.42;;;21.30;99.90;;;;;;5049432;28;20197;-82
2022/05/05 13:02:28;;;;;;;17.80;14.30;;;21.20;99.90;;;;;;5068537;28;20236;-85
2022/05/05 13:04:55;;;;;;;19.27;15.13;;;21.20;99.90;;;;;;5068053;28;20581;-84
2022/05/05 13:07:24;;;;;;;16.00;13.10;;;21.40;99.90;;;;;;5068472;28;20237;-82
2022/05/05 13:09:51;;;;;;;15.90;12.77;;;21.50;99.90;;;;;;5075725;22;20315;-81
2022/05/05 13:12:18;;;;;;;12.82;10.07;;;21.70;99.90;;;;;;5067271;28;20212;-81
2022/05/05 13:14:46;;;;;;;14.82;13.18;;;21.80;99.90;;;;;;5068054;28;20201;-82
2022/05/05 13:17:13;;;;;;;14.35;12.77;;;21.80;99.90;;;;;;5074618;22;20212;-82
2022/05/05 13:19:42;;;;;;;17.45;13.30;;;21.80;99.90;;;;;;5086125;28;20597;-82
2022/05/05 13:22:09;;;;;;;20.50;14.98;;;21.70;99.90;;;;;;5066595;28;20220;-83
2022/05/05 13:24:37;;;;;;;21.33;16.60;;;21.70;99.90;;;;;;5065695;28;20209;-82
2022/05/05 13:27:04;;;;;;;18.85;15.10;;;21.60;99.90;;;;;;5066781;28;20220;-81
2022/05/05 13:29:31;;;;;;;15.50;11.00;;;21.50;99.90;;;;;;5067929;28;20471;-84
2022/05/05 13:31:58;;;;;;;16.13;13.63;;;21.40;99.90;;;;;;5072839;28;20278;-83
2022/05/05 13:34:25;;;;;;;15.43;12.27;;;21.30;99.90;;;;;;5088080;28;20215;-83
2022/05/05 13:36:52;;;;;;;18.02;14.43;;;21.30;99.90;;;;;;5075124;28;20248;-82
2022/05/05 13:39:19;;;;;;;19.05;13.98;;;21.40;99.90;;;;;;5066292;28;20213;-82